Time;durP1;ratioP1;P1;durP2;ratioP2;P2;SDS_P1;SDS_P2;PMS_P1;PMS_P2;Temp;Humidity;BMP_temperature;BMP_pressure;BME280_temperature;BME280_humidity;BME280_pressure;Samples;Min_cycle;Max_cycle;Signal;HPM_P1;HPM_P2
2023/05/01 00:02:22;;;;;;;9.00;5.03;;;10.60;73.50;;;;;;5036178;28;20036;-72
2023/05/01 00:04:47;;;;;;;8.93;5.00;;;10.60;73.60;;;;;;5047844;28;20033;-71
2023/05/01 00:07:13;;;;;;;7.65;4.78;;;10.50;73.70;;;;;;5043210;28;20025;-71
2023/05/01 00:09:39;;;;;;;6.70;4.30;;;10.50;73.90;;;;;;5041960;28;20479;-71
2023/05/01 00:12:05;;;;;;;6.47;4.43;;;10.50;74.00;;;;;;5049719;28;20050;-71
2023/05/01 00:14:30;;;;;;;8.02;4.55;;;10.40;74.50;;;;;;5041561;28;20065;-71
2023/05/01 00:16:56;;;;;;;8.35;4.30;;;10.40;74.00;;;;;;5040460;28;20392;-72
2023/05/01 00:19:21;;;;;;;8.35;4.82;;;10.40;74.20;;;;;;5041523;28;20044;-72
2023/05/01 00:21:47;;;;;;;8.52;4.63;;;10.40;74.40;;;;;;5033929;28;20397;-72
2023/05/01 00:24:16;;;;;;;9.02;4.97;;;10.30;74.40;;;;;;5043596;28;20466;-72
2023/05/01 00:26:42;;;;;;;9.73;4.25;;;10.30;74.60;;;;;;5050330;28;20035;-72
2023/05/01 00:29:08;;;;;;;7.15;4.57;;;10.30;74.60;;;;;;5046362;28;20543;-73
2023/05/01 00:31:34;;;;;;;8.48;5.32;;;10.30;74.80;;;;;;5035659;28;20025;-73
2023/05/01 00:34:00;;;;;;;9.73;5.60;;;10.20;74.90;;;;;;5051533;28;20043;-73
2023/05/01 00:36:26;;;;;;;6.32;4.20;;;10.20;75.00;;;;;;5052443;28;20484;-73
2023/05/01 00:38:51;;;;;;;10.27;4.72;;;10.20;75.10;;;;;;5040892;28;20136;-73
2023/05/01 00:41:17;;;;;;;7.80;4.00;;;10.10;75.20;;;;;;5040647;28;20059;-72
2023/05/01 00:43:43;;;;;;;9.27;4.50;;;10.10;75.20;;;;;;5050068;28;20056;-73
2023/05/01 00:46:09;;;;;;;6.03;3.85;;;10.10;75.30;;;;;;5059350;28;20115;-73
2023/05/01 00:48:35;;;;;;;8.52;4.50;;;10.10;75.40;;;;;;5033348;28;20076;-73
2023/05/01 00:51:04;;;;;;;8.55;4.55;;;10.10;75.60;;;;;;5046954;28;20464;-74
2023/05/01 00:53:31;;;;;;;6.80;3.88;;;10.00;75.70;;;;;;5037958;28;20534;-73
2023/05/01 00:55:58;;;;;;;8.63;4.18;;;10.00;75.90;;;;;;5038207;28;20031;-73
2023/05/01 00:58:23;;;;;;;6.22;4.18;;;10.00;75.90;;;;;;5047781;28;20029;-73
2023/05/01 01:00:49;;;;;;;7.07;4.72;;;9.90;76.00;;;;;;5052713;28;20025;-74
2023/05/01 01:03:15;;;;;;;8.52;4.50;;;9.90;76.10;;;;;;5045278;28;20034;-73
2023/05/01 01:06:03;;;;;;;8.95;5.07;;;9.90;76.20;;;;;;5035559;28;20025;-73
2023/05/01 01:08:38;;;;;;;9.73;4.28;;;9.90;76.50;;;;;;5046459;28;20029;-73
2023/05/01 01:11:16;;;;;;;7.55;4.70;;;9.80;76.60;;;;;;5052923;28;20047;-73
2023/05/01 01:13:57;;;;;;;8.18;4.70;;;9.80;76.70;;;;;;5039298;28;20552;-73
2023/05/01 01:17:00;;;;;;;7.60;4.15;;;9.80;76.80;;;;;;5051823;28;20079;-73
2023/05/01 01:19:57;;;;;;;9.05;5.53;;;9.80;77.00;;;;;;5052310;28;20589;-73
2023/05/01 01:22:25;;;;;;;7.03;4.70;;;9.80;77.10;;;;;;5043799;28;20044;-74
2023/05/01 01:25:28;;;;;;;8.50;4.88;;;9.70;77.10;;;;;;5043413;28;20108;-74
2023/05/01 01:28:10;;;;;;;10.43;5.22;;;9.70;77.30;;;;;;5034996;28;20393;-73
2023/05/01 01:31:03;;;;;;;9.63;5.45;;;9.60;77.50;;;;;;5034134;28;20025;-73
2023/05/01 01:33:48;;;;;;;6.90;4.80;;;9.60;77.70;;;;;;5035522;28;20113;-73
2023/05/01 01:36:33;;;;;;;7.68;4.53;;;9.60;77.90;;;;;;5049227;28;20029;-73
2023/05/01 01:39:22;;;;;;;7.80;4.75;;;9.50;78.00;;;;;;5047506;28;20045;-73
2023/05/01 01:41:50;;;;;;;9.85;4.65;;;9.50;78.20;;;;;;5032720;28;20033;-73
2023/05/01 01:44:23;;;;;;;9.50;5.05;;;9.50;78.30;;;;;;5036018;28;20064;-73
2023/05/01 01:46:51;;;;;;;8.73;5.15;;;9.40;78.60;;;;;;5032233;28;20035;-73
2023/05/01 01:49:22;;;;;;;10.32;5.25;;;9.40;78.70;;;;;;5033983;28;20045;-73
2023/05/01 01:51:50;;;;;;;10.82;5.30;;;9.40;78.90;;;;;;5036985;28;20484;-73
2023/05/01 01:54:25;;;;;;;10.40;5.00;;;9.40;79.00;;;;;;5047508;28;20033;-73
2023/05/01 01:56:51;;;;;;;11.60;5.80;;;9.40;79.20;;;;;;5052720;28;20041;-73
2023/05/01 01:59:19;;;;;;;10.10;5.85;;;9.40;79.40;;;;;;5036672;28;20412;-73
2023/05/01 02:01:47;;;;;;;10.23;5.57;;;9.40;79.50;;;;;;5032714;28;20259;-73
2023/05/01 02:04:15;;;;;;;9.90;6.07;;;9.40;79.70;;;;;;5045106;28;20037;-73
2023/05/01 02:06:42;;;;;;;9.38;5.55;;;9.30;79.80;;;;;;5052285;28;20111;-73
2023/05/01 02:09:09;;;;;;;11.18;5.82;;;9.40;80.00;;;;;;5045582;28;20037;-73
2023/05/01 02:11:38;;;;;;;8.07;5.40;;;9.30;80.10;;;;;;5049250;28;20045;-74
2023/05/01 02:14:05;;;;;;;8.65;5.30;;;9.20;80.20;;;;;;5038601;28;20350;-74
2023/05/01 02:16:33;;;;;;;9.45;6.75;;;9.30;80.40;;;;;;5039931;28;20033;-74
2023/05/01 02:19:01;;;;;;;9.70;6.00;;;9.30;80.50;;;;;;5047779;28;20483;-72
2023/05/01 02:21:29;;;;;;;8.38;6.28;;;9.30;80.60;;;;;;5040514;28;20034;-73
2023/05/01 02:23:58;;;;;;;10.07;6.60;;;9.20;80.60;;;;;;5042101;28;20370;-73
2023/05/01 02:26:25;;;;;;;11.93;6.32;;;9.10;80.60;;;;;;5042135;28;20032;-73
2023/05/01 02:28:51;;;;;;;9.98;6.95;;;9.10;80.70;;;;;;5048261;28;20397;-72
2023/05/01 02:31:16;;;;;;;11.98;7.47;;;9.10;80.80;;;;;;5040053;28;20024;-73
2023/05/01 02:33:42;;;;;;;10.07;6.32;;;9.00;80.90;;;;;;5041086;28;20040;-73
2023/05/01 02:36:07;;;;;;;10.13;7.07;;;9.00;81.00;;;;;;5040524;28;20079;-72
2023/05/01 02:38:34;;;;;;;9.50;6.97;;;8.90;81.20;;;;;;5037963;28;20477;-72
2023/05/01 02:41:01;;;;;;;10.95;5.97;;;8.80;81.30;;;;;;5032124;28;20021;-71
2023/05/01 02:43:31;;;;;;;10.13;6.93;;;8.80;81.40;;;;;;5039042;28;20381;-72
2023/05/01 02:45:58;;;;;;;11.77;6.85;;;8.80;81.60;;;;;;5051049;28;20507;-72
2023/05/01 02:48:26;;;;;;;12.18;7.43;;;8.70;81.70;;;;;;5045570;28;20510;-72
2023/05/01 02:50:54;;;;;;;10.30;6.72;;;8.70;81.90;;;;;;5035356;28;20033;-71
2023/05/01 02:53:21;;;;;;;11.45;7.03;;;8.70;82.00;;;;;;5032175;28;20120;-73
2023/05/01 02:55:47;;;;;;;10.35;7.43;;;8.60;82.00;;;;;;5030615;28;20427;-73
2023/05/01 02:58:18;;;;;;;12.10;7.32;;;8.60;82.20;;;;;;5049904;28;20053;-73
2023/05/01 03:00:44;;;;;;;10.40;6.57;;;8.60;82.40;;;;;;5049598;28;20024;-72
2023/05/01 03:03:10;;;;;;;11.60;6.53;;;8.50;82.40;;;;;;5042252;28;20033;-73
2023/05/01 03:05:40;;;;;;;10.45;7.07;;;8.50;82.50;;;;;;5047353;28;20037;-73
2023/05/01 03:08:06;;;;;;;10.85;6.40;;;8.50;82.50;;;;;;5034956;28;20106;-74
2023/05/01 03:10:32;;;;;;;9.30;6.53;;;8.40;82.50;;;;;;5049573;28;20033;-73
2023/05/01 03:12:58;;;;;;;8.52;6.72;;;8.40;82.60;;;;;;5046227;28;20028;-73
2023/05/01 03:15:23;;;;;;;12.60;6.43;;;8.40;82.80;;;;;;5048664;28;20021;-73
2023/05/01 03:17:49;;;;;;;11.85;6.05;;;8.30;82.90;;;;;;5050631;28;20476;-73
2023/05/01 03:20:15;;;;;;;9.95;6.55;;;8.40;83.10;;;;;;5051135;28;20024;-73
2023/05/01 03:22:40;;;;;;;10.27;6.13;;;8.40;83.10;;;;;;5045968;28;20472;-73
2023/05/01 03:25:07;;;;;;;8.35;6.43;;;8.30;83.20;;;;;;5035221;28;20025;-73
2023/05/01 03:27:32;;;;;;;8.38;5.60;;;8.30;83.20;;;;;;5048501;28;20021;-73
2023/05/01 03:29:58;;;;;;;11.43;6.13;;;8.30;83.30;;;;;;5035619;28;20043;-74
2023/05/01 03:32:23;;;;;;;12.52;6.88;;;8.30;83.30;;;;;;5039002;28;20029;-73
2023/05/01 03:34:49;;;;;;;9.18;6.20;;;8.40;83.40;;;;;;5036173;28;20079;-73
2023/05/01 03:37:15;;;;;;;8.13;5.50;;;8.30;83.40;;;;;;5045084;28;20041;-73
2023/05/01 03:39:40;;;;;;;11.15;6.00;;;8.30;83.50;;;;;;5049416;28;20036;-73
2023/05/01 03:42:06;;;;;;;11.80;6.10;;;8.20;83.40;;;;;;5052731;28;20033;-73
2023/05/01 03:44:32;;;;;;;10.23;6.75;;;8.30;83.50;;;;;;5038512;28;20039;-72
2023/05/01 03:46:58;;;;;;;8.07;5.50;;;8.20;83.50;;;;;;5049404;28;20056;-73
2023/05/01 03:49:23;;;;;;;8.40;5.55;;;8.20;84.00;;;;;;5041687;28;20514;-73
2023/05/01 03:51:49;;;;;;;8.25;5.35;;;8.20;83.60;;;;;;5045736;28;20017;-74
2023/05/01 03:54:15;;;;;;;9.55;5.20;;;8.10;83.70;;;;;;5040289;28;20029;-74
2023/05/01 03:56:40;;;;;;;10.65;5.93;;;8.10;83.80;;;;;;5042741;28;20103;-73
2023/05/01 03:59:06;;;;;;;10.20;6.25;;;8.10;83.80;;;;;;5035154;28;20112;-74
2023/05/01 04:01:34;;;;;;;9.75;6.45;;;8.10;83.90;;;;;;5043341;28;20021;-73
2023/05/01 04:04:01;;;;;;;11.88;5.95;;;8.10;83.90;;;;;;5042566;28;20114;-74
2023/05/01 04:06:27;;;;;;;11.35;5.60;;;8.10;83.90;;;;;;5052191;28;20032;-74
2023/05/01 04:08:52;;;;;;;11.10;6.43;;;8.10;83.90;;;;;;5046885;28;20041;-74
2023/05/01 04:11:18;;;;;;;10.20;5.45;;;8.10;84.00;;;;;;5039310;28;20060;-74
2023/05/01 04:13:43;;;;;;;11.07;6.38;;;8.10;84.10;;;;;;5035164;28;20025;-74
2023/05/01 04:16:09;;;;;;;12.80;5.43;;;8.10;84.10;;;;;;5033701;28;20280;-74
2023/05/01 04:18:34;;;;;;;11.73;5.88;;;8.20;84.20;;;;;;5039044;28;20051;-74
2023/05/01 04:21:00;;;;;;;9.93;5.85;;;8.20;84.20;;;;;;5046552;28;20033;-74
2023/05/01 04:23:26;;;;;;;11.68;5.47;;;8.20;84.30;;;;;;5051013;28;20067;-73
2023/05/01 04:25:51;;;;;;;8.55;5.40;;;8.20;84.30;;;;;;5041735;28;20041;-74
2023/05/01 04:28:17;;;;;;;8.93;5.75;;;8.30;84.40;;;;;;5036420;28;20112;-74
2023/05/01 04:30:42;;;;;;;8.88;5.22;;;8.30;84.40;;;;;;5044720;28;20041;-74
2023/05/01 04:33:11;;;;;;;10.27;5.32;;;8.30;84.30;;;;;;5037470;28;20028;-74
2023/05/01 04:35:40;;;;;;;10.50;6.18;;;8.30;84.30;;;;;;5039244;28;20029;-74
2023/05/01 04:38:06;;;;;;;10.25;5.75;;;8.30;84.30;;;;;;5047987;28;20052;-74
2023/05/01 04:40:32;;;;;;;10.60;5.57;;;8.40;84.30;;;;;;5039077;28;20026;-74
2023/05/01 04:42:58;;;;;;;7.97;5.55;;;8.40;84.30;;;;;;5037722;28;20068;-73
2023/05/01 04:45:24;;;;;;;10.48;6.22;;;8.30;84.20;;;;;;5036925;28;20112;-74
2023/05/01 04:47:49;;;;;;;8.60;5.03;;;8.40;84.20;;;;;;5042649;28;20033;-74
2023/05/01 04:50:15;;;;;;;11.80;5.93;;;8.40;84.20;;;;;;5033423;28;20132;-74
2023/05/01 04:52:41;;;;;;;9.68;5.07;;;8.40;84.20;;;;;;5043509;28;20035;-74
2023/05/01 04:55:08;;;;;;;8.73;5.43;;;8.40;84.40;;;;;;5040517;28;20039;-74
2023/05/01 04:57:34;;;;;;;9.20;5.43;;;8.40;84.40;;;;;;5049827;28;20033;-74
2023/05/01 05:00:00;;;;;;;8.48;4.72;;;8.50;84.40;;;;;;5048451;28;20029;-74
2023/05/01 05:02:25;;;;;;;11.55;5.70;;;8.50;84.50;;;;;;5051008;28;20549;-75
2023/05/01 05:04:53;;;;;;;9.95;6.40;;;8.50;84.50;;;;;;5034250;28;20113;-75
2023/05/01 05:07:19;;;;;;;9.10;5.07;;;8.50;84.50;;;;;;5033313;28;20476;-74
2023/05/01 05:09:45;;;;;;;10.65;5.38;;;8.50;84.40;;;;;;5044538;28;20033;-74
2023/05/01 05:12:11;;;;;;;8.23;5.32;;;8.60;84.50;;;;;;5032884;28;20032;-73
2023/05/01 05:14:36;;;;;;;11.02;5.53;;;8.60;84.50;;;;;;5045556;28;20157;-74
2023/05/01 05:17:02;;;;;;;11.38;5.50;;;8.60;84.60;;;;;;5043974;28;20025;-74
2023/05/01 05:19:27;;;;;;;10.05;5.20;;;8.70;84.60;;;;;;5044958;28;20067;-74
2023/05/01 05:21:53;;;;;;;9.48;5.22;;;8.70;84.60;;;;;;5047438;28;20425;-74
2023/05/01 05:24:19;;;;;;;15.73;5.50;;;8.80;84.60;;;;;;5043880;28;20039;-74
2023/05/01 05:26:44;;;;;;;9.05;5.75;;;8.80;84.60;;;;;;5041555;28;20024;-74
2023/05/01 05:29:10;;;;;;;9.07;5.32;;;8.80;84.50;;;;;;5045037;28;20037;-74
2023/05/01 05:31:36;;;;;;;7.65;5.03;;;8.90;84.60;;;;;;5036042;28;20455;-74
2023/05/01 05:34:01;;;;;;;9.98;5.38;;;8.90;84.50;;;;;;5042153;28;20166;-74
2023/05/01 05:36:27;;;;;;;9.45;4.60;;;9.00;84.30;;;;;;5039003;28;20126;-75
2023/05/01 05:38:53;;;;;;;9.40;5.68;;;9.00;84.10;;;;;;5039733;28;20527;-74
2023/05/01 05:41:19;;;;;;;7.90;4.60;;;9.10;84.10;;;;;;5037255;28;20040;-74
2023/05/01 05:43:44;;;;;;;7.03;4.90;;;9.20;84.10;;;;;;5037168;28;20032;-76
2023/05/01 05:46:10;;;;;;;7.70;4.70;;;9.20;83.90;;;;;;5045224;28;20025;-74
2023/05/01 05:48:35;;;;;;;8.85;4.88;;;9.30;83.80;;;;;;5044982;28;20423;-76
2023/05/01 05:51:01;;;;;;;7.40;5.07;;;9.30;83.60;;;;;;5048135;28;20028;-75
2023/05/01 05:53:27;;;;;;;6.55;4.43;;;9.30;83.30;;;;;;5051884;28;20482;-74
2023/05/01 05:55:52;;;;;;;9.77;4.93;;;9.40;83.20;;;;;;5037491;28;20028;-76
2023/05/01 05:58:22;;;;;;;8.32;5.05;;;9.40;83.10;;;;;;5044297;28;20152;-74
2023/05/01 06:00:52;;;;;;;7.82;4.60;;;9.50;83.00;;;;;;5032252;28;20029;-74
2023/05/01 06:03:18;;;;;;;6.50;4.50;;;9.50;82.60;;;;;;5050951;28;20104;-73
2023/05/01 06:05:44;;;;;;;8.43;4.70;;;9.60;82.60;;;;;;5038855;28;20044;-73
2023/05/01 06:08:10;;;;;;;10.55;4.57;;;9.70;82.50;;;;;;5048841;28;20037;-73
2023/05/01 06:10:38;;;;;;;8.88;4.18;;;9.70;82.30;;;;;;5044309;28;20516;-73
2023/05/01 06:13:06;;;;;;;8.40;4.63;;;9.80;82.20;;;;;;5034662;28;20040;-73
2023/05/01 06:15:32;;;;;;;14.05;4.57;;;9.80;82.10;;;;;;5049223;28;20068;-73
2023/05/01 06:17:58;;;;;;;6.72;4.50;;;9.90;82.00;;;;;;5039145;28;20551;-73
2023/05/01 06:20:23;;;;;;;6.75;4.47;;;10.00;81.80;;;;;;5044302;28;20119;-73
2023/05/01 06:22:49;;;;;;;7.82;4.53;;;10.00;81.70;;;;;;5041785;28;20392;-73
2023/05/01 06:25:15;;;;;;;8.05;4.72;;;10.10;81.70;;;;;;5037728;28;20029;-73
2023/05/01 06:27:40;;;;;;;10.75;4.32;;;10.20;81.70;;;;;;5044881;28;20445;-73
2023/05/01 06:30:08;;;;;;;6.18;3.65;;;10.30;81.40;;;;;;5051583;28;20040;-73
2023/05/01 06:32:33;;;;;;;7.07;4.40;;;10.40;81.10;;;;;;5048365;28;20048;-73
2023/05/01 06:34:59;;;;;;;7.18;3.95;;;10.50;80.80;;;;;;5046806;28;20106;-73
2023/05/01 06:37:24;;;;;;;6.68;3.88;;;10.60;80.80;;;;;;5047154;28;20055;-73
2023/05/01 06:39:50;;;;;;;7.10;3.70;;;10.70;80.60;;;;;;5045916;28;20033;-74
2023/05/01 06:42:16;;;;;;;6.50;4.15;;;10.80;80.40;;;;;;5039445;28;20055;-72
2023/05/01 06:44:42;;;;;;;6.60;3.85;;;10.90;80.00;;;;;;5051518;28;20026;-72
2023/05/01 06:47:08;;;;;;;6.95;3.90;;;11.00;79.90;;;;;;5038464;28;20033;-73
2023/05/01 06:49:34;;;;;;;6.38;4.15;;;11.10;79.80;;;;;;5035071;28;20037;-72
2023/05/01 06:51:59;;;;;;;4.43;2.88;;;11.20;79.50;;;;;;5034755;28;20021;-72
2023/05/01 06:54:27;;;;;;;8.35;4.15;;;11.30;79.20;;;;;;5031673;28;20057;-73
2023/05/01 06:56:53;;;;;;;6.03;3.55;;;11.50;78.80;;;;;;5042707;28;20063;-72
2023/05/01 06:59:19;;;;;;;6.95;3.97;;;11.50;78.60;;;;;;5044721;28;20060;-71
2023/05/01 07:01:45;;;;;;;6.28;3.55;;;11.70;78.60;;;;;;5034335;28;20021;-71
2023/05/01 07:04:10;;;;;;;8.05;4.15;;;11.80;78.60;;;;;;5043457;28;20082;-71
2023/05/01 07:06:36;;;;;;;5.53;3.35;;;11.90;78.10;;;;;;5047968;28;20021;-71
2023/05/01 07:09:03;;;;;;;7.38;3.92;;;12.00;77.90;;;;;;5049765;28;20037;-69
2023/05/01 07:11:28;;;;;;;7.88;4.07;;;12.10;77.50;;;;;;5040206;28;20033;-71
2023/05/01 07:13:54;;;;;;;7.38;3.58;;;12.20;77.20;;;;;;5046215;28;20033;-71
2023/05/01 07:16:20;;;;;;;5.28;3.35;;;12.30;76.90;;;;;;5035765;28;20049;-70
2023/05/01 07:18:46;;;;;;;7.05;4.28;;;12.40;76.80;;;;;;5036975;28;20439;-70
2023/05/01 07:21:12;;;;;;;6.97;3.47;;;12.50;76.60;;;;;;5047152;28;20021;-70
2023/05/01 07:23:38;;;;;;;6.55;3.88;;;12.60;76.40;;;;;;5041220;28;20526;-70
2023/05/01 07:26:04;;;;;;;7.85;3.85;;;12.70;76.70;;;;;;5044108;28;20048;-70
2023/05/01 07:28:30;;;;;;;5.95;3.08;;;12.80;76.10;;;;;;5044294;28;20036;-70
2023/05/01 07:30:56;;;;;;;6.93;3.70;;;12.90;75.80;;;;;;5034967;28;20033;-70
2023/05/01 07:33:24;;;;;;;8.43;4.05;;;13.00;76.00;;;;;;5036840;28;20040;-70
2023/05/01 07:35:50;;;;;;;6.97;3.35;;;13.10;75.20;;;;;;5043534;28;20552;-70
2023/05/01 07:38:16;;;;;;;5.70;3.55;;;13.20;75.00;;;;;;5030839;28;20064;-70
2023/05/01 07:40:42;;;;;;;6.10;3.38;;;13.30;74.80;;;;;;5037905;28;20461;-70
2023/05/01 07:43:10;;;;;;;4.07;2.67;;;13.50;74.80;;;;;;5043759;28;20110;-70
2023/05/01 07:45:40;;;;;;;5.60;3.38;;;13.60;74.40;;;;;;5035449;28;20025;-71
2023/05/01 07:48:05;;;;;;;6.93;4.03;;;13.70;74.10;;;;;;5038700;28;20115;-70
2023/05/01 07:50:31;;;;;;;7.65;3.28;;;13.90;74.10;;;;;;5038813;28;20053;-71
2023/05/01 07:52:57;;;;;;;7.35;3.97;;;14.00;73.60;;;;;;5036187;28;20021;-72
2023/05/01 07:55:23;;;;;;;4.97;2.92;;;14.10;73.50;;;;;;5035434;28;20025;-70
2023/05/01 07:57:49;;;;;;;5.10;2.60;;;14.20;73.20;;;;;;5041561;28;20032;-70
2023/05/01 08:00:16;;;;;;;3.75;2.55;;;14.20;73.00;;;;;;5038949;28;20392;-68
2023/05/01 08:02:42;;;;;;;7.78;4.07;;;14.40;72.50;;;;;;5044427;28;20024;-70
2023/05/01 08:05:08;;;;;;;5.55;2.83;;;14.50;72.20;;;;;;5043258;28;20029;-70
2023/05/01 08:07:34;;;;;;;6.30;2.88;;;14.60;71.60;;;;;;5043259;28;20384;-69
2023/05/01 08:09:59;;;;;;;7.35;3.83;;;14.70;71.40;;;;;;5033572;28;20033;-70
2023/05/01 08:12:26;;;;;;;6.10;2.72;;;14.80;71.20;;;;;;5040060;28;20105;-71
2023/05/01 08:14:52;;;;;;;4.53;2.83;;;14.90;71.00;;;;;;5040109;28;20084;-70
2023/05/01 08:17:17;;;;;;;4.75;2.88;;;15.00;70.30;;;;;;5036839;28;20057;-70
2023/05/01 08:19:44;;;;;;;7.05;3.13;;;15.10;70.30;;;;;;5039821;28;20351;-70
2023/05/01 08:22:10;;;;;;;4.50;2.90;;;15.20;70.40;;;;;;5044310;28;20388;-71
2023/05/01 08:24:37;;;;;;;5.78;2.67;;;15.20;70.10;;;;;;5038395;28;20089;-70
2023/05/01 08:27:02;;;;;;;9.98;3.58;;;15.40;70.10;;;;;;5042003;28;20026;-70
2023/05/01 08:29:28;;;;;;;7.93;3.05;;;15.50;69.50;;;;;;5035637;28;20392;-70
2023/05/01 08:31:55;;;;;;;7.90;2.60;;;15.50;70.20;;;;;;5040471;28;20614;-70
2023/05/01 08:34:21;;;;;;;6.30;2.70;;;15.60;69.20;;;;;;5038976;28;20025;-70
2023/05/01 08:36:47;;;;;;;4.35;2.78;;;15.70;69.30;;;;;;5043005;28;20080;-71
2023/05/01 08:39:14;;;;;;;7.30;2.70;;;15.80;69.00;;;;;;5044074;28;20040;-71
2023/05/01 08:41:42;;;;;;;5.10;2.63;;;15.80;69.20;;;;;;5047468;28;20387;-70
2023/05/01 08:44:09;;;;;;;4.15;2.65;;;15.90;68.50;;;;;;5040412;28;20029;-70
2023/05/01 08:46:44;;;;;;;4.30;2.72;;;15.90;68.00;;;;;;5035807;28;20087;-70
2023/05/01 08:49:14;;;;;;;6.50;2.63;;;16.00;67.90;;;;;;5037389;28;20171;-70
2023/05/01 08:51:43;;;;;;;5.32;2.10;;;16.10;67.50;;;;;;5035601;28;20033;-71
2023/05/01 08:54:10;;;;;;;6.15;2.65;;;16.20;66.70;;;;;;5034005;28;20484;-70
2023/05/01 08:56:37;;;;;;;3.65;2.40;;;16.20;66.60;;;;;;5033943;28;20099;-70
2023/05/01 08:59:04;;;;;;;5.45;2.58;;;16.30;66.40;;;;;;5040887;28;20075;-70
2023/05/01 09:01:32;;;;;;;4.75;2.47;;;16.30;66.00;;;;;;5042371;28;20029;-71
2023/05/01 09:04:01;;;;;;;4.53;2.30;;;16.40;65.90;;;;;;5043602;28;20021;-70
2023/05/01 09:06:28;;;;;;;5.22;2.38;;;16.40;65.50;;;;;;5046492;28;20032;-70
2023/05/01 09:08:54;;;;;;;5.13;2.40;;;16.40;64.90;;;;;;5037412;28;20480;-70
2023/05/01 09:11:21;;;;;;;3.05;1.90;;;16.50;64.40;;;;;;5041049;28;20037;-70
2023/05/01 09:13:47;;;;;;;4.65;2.55;;;16.60;64.40;;;;;;5030221;28;20116;-70
2023/05/01 09:16:13;;;;;;;6.88;2.13;;;16.60;64.50;;;;;;5043617;28;20203;-70
2023/05/01 09:18:40;;;;;;;3.20;2.00;;;16.70;64.70;;;;;;5042145;28;20017;-70
2023/05/01 09:21:06;;;;;;;4.32;2.17;;;16.80;64.70;;;;;;5032880;28;20122;-70
2023/05/01 09:23:32;;;;;;;3.83;2.15;;;16.90;64.00;;;;;;5038475;28;20239;-70
2023/05/01 09:25:59;;;;;;;3.22;2.00;;;16.90;63.60;;;;;;5048186;28;20120;-70
2023/05/01 09:28:41;;;;;;;4.57;2.30;;;17.00;63.10;;;;;;5033194;28;20537;-70
2023/05/01 09:31:23;;;;;;;4.85;2.40;;;17.10;63.00;;;;;;5033810;28;20036;-69
2023/05/01 09:33:56;;;;;;;6.22;2.63;;;17.20;62.70;;;;;;5040769;28;20055;-70
2023/05/01 09:36:28;;;;;;;5.45;2.45;;;17.20;62.50;;;;;;5037625;28;20038;-71
2023/05/01 09:38:54;;;;;;;5.60;2.92;;;17.30;62.40;;;;;;5032542;28;20594;-70
2023/05/01 09:41:20;;;;;;;8.82;2.70;;;17.40;62.20;;;;;;5043440;28;20025;-72
2023/05/01 09:43:56;;;;;;;3.78;2.25;;;17.50;62.20;;;;;;5042401;28;20068;-72
2023/05/01 09:46:23;;;;;;;6.80;2.60;;;17.60;62.40;;;;;;5045304;28;20029;-70
2023/05/01 09:49:00;;;;;;;4.72;2.45;;;17.70;62.10;;;;;;5042169;28;20037;-74
2023/05/01 09:51:28;;;;;;;4.65;2.22;;;17.70;61.50;;;;;;5048730;28;20164;-71
2023/05/01 09:53:55;;;;;;;8.25;2.67;;;17.80;61.70;;;;;;5046506;28;20436;-71
2023/05/01 09:56:22;;;;;;;5.32;2.67;;;17.90;61.40;;;;;;5034786;28;20079;-72
2023/05/01 09:58:52;;;;;;;3.80;2.78;;;17.90;61.30;;;;;;5045269;28;20109;-72
2023/05/01 10:01:36;;;;;;;6.03;2.90;;;18.00;60.80;;;;;;5031480;28;20033;-72
2023/05/01 10:04:02;;;;;;;5.28;2.85;;;18.00;60.70;;;;;;5036078;28;20083;-71
2023/05/01 10:06:28;;;;;;;6.43;2.35;;;18.00;60.60;;;;;;5048743;28;20381;-69
2023/05/01 10:08:53;;;;;;;8.00;3.05;;;18.00;60.60;;;;;;5042213;28;20098;-74
2023/05/01 10:11:20;;;;;;;4.60;2.75;;;18.10;60.60;;;;;;5036778;28;20040;-74
2023/05/01 10:14:05;;;;;;;4.57;2.47;;;18.10;60.90;;;;;;5044544;28;20041;-74
2023/05/01 10:16:32;;;;;;;7.78;2.72;;;18.20;60.70;;;;;;5043233;28;20025;-73
2023/05/01 10:18:59;;;;;;;4.95;2.28;;;18.20;60.60;;;;;;5032017;28;20040;-73
2023/05/01 10:21:24;;;;;;;5.70;2.88;;;18.30;60.30;;;;;;5042164;28;20060;-73
2023/05/01 10:23:51;;;;;;;6.63;2.63;;;18.30;60.10;;;;;;5042153;28;20033;-73
2023/05/01 10:26:17;;;;;;;5.47;2.53;;;18.30;60.50;;;;;;5040144;28;20037;-72
2023/05/01 10:28:45;;;;;;;5.20;2.65;;;18.40;60.10;;;;;;5041419;28;20367;-73
2023/05/01 10:31:12;;;;;;;6.65;2.67;;;18.40;60.00;;;;;;5033292;28;20103;-74
2023/05/01 10:33:42;;;;;;;5.00;2.40;;;18.40;59.80;;;;;;5036621;28;20025;-72
2023/05/01 10:36:18;;;;;;;5.57;3.25;;;18.40;59.70;;;;;;5038531;28;20036;-73
2023/05/01 10:38:47;;;;;;;10.15;3.22;;;18.50;59.80;;;;;;5034650;28;20084;-74
2023/05/01 10:41:16;;;;;;;4.22;2.55;;;18.50;60.20;;;;;;5042671;28;20424;-72
2023/05/01 10:43:42;;;;;;;7.38;2.70;;;18.60;60.20;;;;;;5037586;28;20439;-74
2023/05/01 10:46:20;;;;;;;5.80;3.05;;;18.60;60.30;;;;;;5041051;28;20526;-73
2023/05/01 10:48:45;;;;;;;4.97;3.03;;;18.70;59.80;;;;;;5031075;28;20480;-74
2023/05/01 10:51:24;;;;;;;5.28;3.05;;;18.70;60.00;;;;;;5037549;28;20090;-74
2023/05/01 10:54:12;;;;;;;7.05;2.78;;;18.70;60.10;;;;;;5043906;28;20033;-73
2023/05/01 10:56:38;;;;;;;5.38;2.80;;;18.80;59.80;;;;;;5042299;28;20025;-73
2023/05/01 10:59:04;;;;;;;4.95;2.78;;;18.90;60.10;;;;;;5037652;28;20079;-71
2023/05/01 11:01:35;;;;;;;4.53;2.75;;;18.90;60.10;;;;;;5039232;28;20445;-70
2023/05/01 11:04:03;;;;;;;4.57;2.80;;;18.90;59.50;;;;;;5045038;28;20037;-71
2023/05/01 11:06:30;;;;;;;4.28;2.25;;;19.00;59.20;;;;;;5031932;28;20120;-73
2023/05/01 11:08:56;;;;;;;5.50;2.78;;;19.00;59.00;;;;;;5040890;28;20091;-77
2023/05/01 11:11:22;;;;;;;6.25;2.60;;;19.10;58.50;;;;;;5036675;28;20468;-73
2023/05/01 11:14:04;;;;;;;4.25;2.95;;;19.10;58.30;;;;;;5032766;28;20071;-73
2023/05/01 11:16:36;;;;;;;4.63;3.17;;;19.00;57.50;;;;;;5031657;28;20138;-72
2023/05/01 11:19:02;;;;;;;5.50;2.75;;;19.00;57.80;;;;;;5035992;28;20041;-72
2023/05/01 11:21:29;;;;;;;6.18;3.35;;;19.00;57.40;;;;;;5041456;28;20503;-72
2023/05/01 11:23:55;;;;;;;4.63;2.30;;;18.90;57.50;;;;;;5047112;28;20037;-72
2023/05/01 11:26:22;;;;;;;4.70;2.70;;;19.00;56.80;;;;;;5031815;28;20052;-72
2023/05/01 11:28:52;;;;;;;4.25;2.50;;;19.00;56.90;;;;;;5041762;28;20388;-72
2023/05/01 11:31:20;;;;;;;6.53;3.10;;;19.00;57.20;;;;;;5033858;28;20171;-73
2023/05/01 11:33:46;;;;;;;4.72;3.15;;;19.10;57.20;;;;;;5037868;28;20031;-72
2023/05/01 11:36:12;;;;;;;5.40;2.90;;;19.20;57.20;;;;;;5032458;28;20025;-73
2023/05/01 11:38:58;;;;;;;5.68;2.85;;;19.30;58.60;;;;;;5037164;28;20535;-72
2023/05/01 11:41:25;;;;;;;4.22;2.60;;;19.40;58.10;;;;;;5036557;28;20108;-73
2023/05/01 11:43:57;;;;;;;4.68;2.65;;;19.60;57.90;;;;;;5031984;28;20388;-73
2023/05/01 11:46:30;;;;;;;6.30;3.15;;;19.70;58.00;;;;;;5034180;28;20482;-73
2023/05/01 11:49:00;;;;;;;6.40;3.42;;;19.70;57.10;;;;;;5042958;28;20051;-73
2023/05/01 11:51:27;;;;;;;5.22;3.10;;;19.90;57.20;;;;;;5040315;28;20419;-73
2023/05/01 11:54:10;;;;;;;6.20;3.05;;;20.00;57.40;;;;;;5041810;28;20108;-73
2023/05/01 11:56:36;;;;;;;4.38;2.67;;;20.20;57.70;;;;;;5035534;28;20666;-73
2023/05/01 11:59:15;;;;;;;5.70;2.90;;;20.30;56.80;;;;;;5049551;28;20021;-73
2023/05/01 12:01:43;;;;;;;4.80;3.35;;;20.30;56.10;;;;;;5043727;28;20486;-71
2023/05/01 12:04:10;;;;;;;4.88;2.80;;;20.30;55.60;;;;;;5036834;28;20029;-72
2023/05/01 12:06:44;;;;;;;7.18;3.03;;;20.40;55.00;;;;;;5045753;28;20033;-70
2023/05/01 12:09:18;;;;;;;7.75;2.67;;;20.40;55.00;;;;;;5045817;28;20044;-70
2023/05/01 12:11:45;;;;;;;4.78;3.00;;;20.40;55.30;;;;;;5038703;28;20033;-72
2023/05/01 12:14:13;;;;;;;5.63;2.78;;;20.40;54.60;;;;;;5034431;28;20380;-72
2023/05/01 12:16:39;;;;;;;5.53;3.00;;;20.40;54.50;;;;;;5037240;28;20037;-72
2023/05/01 12:19:05;;;;;;;6.53;2.78;;;20.30;54.70;;;;;;5038150;28;20253;-72
2023/05/01 12:21:31;;;;;;;8.38;3.15;;;20.30;54.20;;;;;;5047589;28;20033;-72
2023/05/01 12:24:09;;;;;;;6.82;2.90;;;20.30;54.50;;;;;;5031540;28;20511;-72
2023/05/01 12:26:36;;;;;;;4.05;2.80;;;20.30;54.60;;;;;;5040590;28;20035;-72
2023/05/01 12:29:04;;;;;;;5.95;3.60;;;20.30;54.40;;;;;;5034143;28;20048;-72
2023/05/01 12:31:30;;;;;;;5.05;2.80;;;20.40;54.50;;;;;;5035031;28;20558;-73
2023/05/01 12:33:58;;;;;;;4.45;2.63;;;20.40;54.70;;;;;;5046746;28;20052;-73
2023/05/01 12:36:27;;;;;;;5.82;3.22;;;20.50;54.70;;;;;;5036870;28;20017;-72
2023/05/01 12:38:59;;;;;;;5.38;3.30;;;20.50;54.20;;;;;;5038399;28;20492;-72
2023/05/01 12:41:53;;;;;;;6.68;3.28;;;20.50;54.60;;;;;;5035840;28;20112;-72
2023/05/01 12:44:26;;;;;;;4.47;2.75;;;20.60;54.70;;;;;;5032874;28;20029;-73
2023/05/01 12:46:55;;;;;;;6.13;3.00;;;20.60;53.90;;;;;;5041377;28;20094;-72
2023/05/01 12:49:22;;;;;;;6.85;3.38;;;20.70;54.30;;;;;;5047549;28;20044;-72
2023/05/01 12:51:49;;;;;;;6.10;3.35;;;20.80;54.50;;;;;;5037492;28;20074;-72
2023/05/01 12:54:19;;;;;;;5.22;3.03;;;20.90;54.80;;;;;;5046182;28;20026;-72